Time;durP1;ratioP1;P1;durP2;ratioP2;P2;SDS_P1;SDS_P2;PMS_P1;PMS_P2;Temp;Humidity;BMP_temperature;BMP_pressure;BME280_temperature;BME280_humidity;BME280_pressure;Samples;Min_cycle;Max_cycle;Signal;HPM_P1;HPM_P2
2021/05/11 00:02:06;;;;;;;12.27;3.78;;;18.10;76.90;;;;;;5071827;28;20539;-73
2021/05/11 00:04:32;;;;;;;6.50;3.08;;;18.00;77.20;;;;;;5071662;28;20035;-73
2021/05/11 00:06:58;;;;;;;5.40;3.53;;;18.00;77.40;;;;;;5071658;28;20020;-73
2021/05/11 00:09:24;;;;;;;14.30;3.47;;;17.70;79.70;;;;;;5071920;28;20027;-73
2021/05/11 00:11:50;;;;;;;8.98;3.13;;;17.50;79.60;;;;;;5037234;28;20027;-73
2021/05/11 00:14:15;;;;;;;10.43;3.70;;;17.30;81.20;;;;;;5053771;28;20361;-73
2021/05/11 00:16:41;;;;;;;5.85;4.05;;;17.10;83.20;;;;;;5071603;28;20037;-73
2021/05/11 00:19:09;;;;;;;7.15;3.42;;;17.10;83.70;;;;;;5071617;28;20504;-73
2021/05/11 00:21:35;;;;;;;4.63;3.65;;;17.00;85.30;;;;;;5071502;28;20024;-73
2021/05/11 00:24:01;;;;;;;4.28;3.17;;;17.00;84.90;;;;;;5071730;28;20020;-73
2021/05/11 00:26:27;;;;;;;12.57;3.58;;;16.90;87.30;;;;;;5071505;28;20078;-73
2021/05/11 00:28:53;;;;;;;4.88;3.20;;;16.90;87.80;;;;;;5071584;28;20392;-73
2021/05/11 00:31:18;;;;;;;5.75;3.42;;;16.90;89.30;;;;;;5071531;28;20063;-73
2021/05/11 00:33:45;;;;;;;5.22;3.85;;;16.80;90.30;;;;;;5071580;28;20063;-73
2021/05/11 00:36:11;;;;;;;6.53;3.15;;;16.80;91.00;;;;;;5053492;28;20086;-73
2021/05/11 00:38:36;;;;;;;5.53;3.47;;;16.80;91.90;;;;;;5053726;28;20024;-73
2021/05/11 00:41:02;;;;;;;7.18;3.50;;;17.00;90.70;;;;;;5071441;28;20484;-73
2021/05/11 00:43:28;;;;;;;8.68;3.10;;;16.60;92.10;;;;;;5071538;28;20024;-73
2021/05/11 00:45:54;;;;;;;6.28;4.15;;;16.60;92.90;;;;;;5071170;28;20140;-73
2021/05/11 00:48:19;;;;;;;6.60;4.28;;;16.50;94.30;;;;;;5071411;28;20025;-73
2021/05/11 00:50:45;;;;;;;9.80;3.65;;;16.60;94.30;;;;;;5071415;28;20476;-73
2021/05/11 00:53:11;;;;;;;6.57;3.58;;;16.50;95.20;;;;;;5071397;28;20430;-73
2021/05/11 00:55:38;;;;;;;7.03;3.78;;;16.70;93.90;;;;;;5072653;28;20060;-73
2021/05/11 00:58:05;;;;;;;6.55;3.00;;;17.00;92.50;;;;;;5075381;28;20157;-73
2021/05/11 01:00:31;;;;;;;6.90;4.03;;;17.20;91.10;;;;;;5057110;28;20077;-73
2021/05/11 01:02:57;;;;;;;9.68;3.35;;;17.40;90.20;;;;;;5057162;28;20025;-73
2021/05/11 01:05:23;;;;;;;4.55;3.67;;;17.30;88.10;;;;;;5074877;28;20059;-73
2021/05/11 01:07:49;;;;;;;8.75;3.75;;;17.10;90.20;;;;;;5074810;28;20016;-73
2021/05/11 01:10:14;;;;;;;9.90;3.28;;;17.00;90.00;;;;;;5074882;28;20066;-73
2021/05/11 01:12:40;;;;;;;4.35;3.35;;;16.80;91.60;;;;;;5074819;28;20025;-73
2021/05/11 01:15:07;;;;;;;8.98;3.90;;;16.70;91.90;;;;;;5074642;28;20063;-73
2021/05/11 01:17:36;;;;;;;7.32;3.80;;;16.70;92.70;;;;;;5074649;28;20021;-73
2021/05/11 01:20:05;;;;;;;9.43;3.10;;;16.80;92.20;;;;;;5056682;28;20028;-73
2021/05/11 01:25:09;;;;;;;4.53;2.92;;;16.90;92.40;;;;;;5074556;28;20026;-73
2021/05/11 02:23:30;;;;;;;6.43;3.13;;;15.60;97.70;;;;;;5073650;28;20082;-73
2021/05/11 02:25:57;;;;;;;6.00;3.08;;;15.80;97.90;;;;;;5073329;28;20048;-73
2021/05/11 02:28:23;;;;;;;4.18;2.90;;;15.90;95.00;;;;;;5073376;28;20024;-73
2021/05/11 02:30:50;;;;;;;3.88;3.05;;;15.60;97.60;;;;;;5073379;28;20085;-73
2021/05/11 02:33:17;;;;;;;10.23;3.00;;;15.50;96.30;;;;;;5073159;28;20088;-73
2021/05/11 02:35:43;;;;;;;7.32;3.08;;;15.30;97.10;;;;;;5073043;28;20028;-73
2021/05/11 02:38:09;;;;;;;5.80;3.13;;;15.30;97.20;;;;;;5073137;28;20024;-73
2021/05/11 02:40:34;;;;;;;4.72;2.92;;;15.10;99.80;;;;;;5073154;28;20056;-73
2021/05/11 02:43:07;;;;;;;9.77;3.67;;;15.00;98.60;;;;;;5073100;28;20053;-73
2021/05/11 02:45:34;;;;;;;5.05;3.10;;;15.20;99.90;;;;;;5073115;28;20030;-73
2021/05/11 02:48:00;;;;;;;6.82;3.30;;;15.20;98.30;;;;;;5054883;28;20025;-73
2021/05/11 02:50:30;;;;;;;8.38;3.20;;;15.10;97.90;;;;;;5073007;28;20036;-73
2021/05/11 02:52:56;;;;;;;7.53;3.20;;;15.10;97.40;;;;;;5073010;28;20519;-73
2021/05/11 02:55:23;;;;;;;6.75;3.08;;;14.90;98.00;;;;;;5072915;28;20033;-73
2021/05/11 02:57:51;;;;;;;3.40;3.10;;;15.00;98.20;;;;;;5072737;28;20017;-73
2021/05/11 03:00:19;;;;;;;7.28;2.90;;;15.00;98.60;;;;;;5072724;28;20464;-73
2021/05/11 03:02:45;;;;;;;3.22;2.72;;;15.10;98.60;;;;;;5072539;28;20025;-73
2021/05/11 03:05:12;;;;;;;6.57;3.13;;;14.90;97.80;;;;;;5054710;28;20052;-73
2021/05/11 03:07:38;;;;;;;8.30;3.70;;;14.80;98.00;;;;;;5054517;28;20024;-73
2021/05/11 03:10:05;;;;;;;6.82;3.40;;;14.70;99.90;;;;;;5072577;28;20028;-73
2021/05/11 03:12:31;;;;;;;5.70;3.17;;;14.80;99.90;;;;;;5072583;28;20020;-73
2021/05/11 03:14:57;;;;;;;5.80;3.17;;;14.90;99.10;;;;;;5072820;28;20375;-73
2021/05/11 03:17:23;;;;;;;9.25;3.17;;;14.90;99.90;;;;;;5072216;28;20040;-73
2021/05/11 03:19:48;;;;;;;5.40;3.13;;;15.00;99.70;;;;;;5071699;28;20070;-73
2021/05/11 03:22:14;;;;;;;4.90;3.28;;;15.10;99.90;;;;;;5072144;28;20056;-73
2021/05/11 03:24:44;;;;;;;9.18;3.70;;;15.00;98.90;;;;;;5072429;28;20070;-73
2021/05/11 03:27:11;;;;;;;4.65;3.40;;;15.20;98.40;;;;;;5086241;23;20492;-71
2021/05/11 03:29:38;;;;;;;5.95;2.88;;;15.10;98.70;;;;;;5055018;28;20025;-71
2021/05/11 03:32:04;;;;;;;5.85;2.90;;;15.30;98.40;;;;;;5072606;28;20822;-71
2021/05/11 03:34:30;;;;;;;10.02;3.53;;;15.50;96.80;;;;;;5054675;28;20487;-71
2021/05/11 03:36:55;;;;;;;6.20;2.22;;;15.40;95.50;;;;;;5072701;28;20035;-71
2021/05/11 03:39:21;;;;;;;4.82;2.90;;;15.20;97.00;;;;;;5072790;28;20032;-71
2021/05/11 03:41:51;;;;;;;7.57;2.97;;;15.20;96.70;;;;;;5072577;28;20071;-72
2021/05/11 03:44:21;;;;;;;4.15;2.65;;;14.90;98.30;;;;;;5054955;28;20021;-71
2021/05/11 03:46:47;;;;;;;10.13;3.28;;;15.00;99.80;;;;;;5072405;28;20016;-71
2021/05/11 03:49:13;;;;;;;8.10;2.63;;;14.80;99.70;;;;;;5072355;28;20095;-71
2021/05/11 03:51:39;;;;;;;4.78;2.33;;;14.80;99.90;;;;;;5072334;28;20020;-71
2021/05/11 03:54:06;;;;;;;6.93;2.60;;;14.80;99.90;;;;;;5072677;28;20024;-72
2021/05/11 03:56:32;;;;;;;7.15;2.63;;;14.70;99.90;;;;;;5072478;28;20063;-71
2021/05/11 03:58:58;;;;;;;4.93;2.55;;;14.70;99.90;;;;;;5072466;28;20028;-71
2021/05/11 04:01:25;;;;;;;9.75;3.10;;;14.70;99.40;;;;;;5072208;28;20083;-72
2021/05/11 04:03:50;;;;;;;5.50;2.55;;;14.90;98.30;;;;;;5072305;28;20025;-71
2021/05/11 04:06:16;;;;;;;10.50;2.60;;;15.00;98.00;;;;;;5072357;28;20386;-71
2021/05/11 04:18:44;;;;;;;10.00;3.13;;;14.40;99.90;;;;;;5072315;28;20082;-71
2021/05/11 04:21:10;;;;;;;12.82;3.10;;;14.30;99.90;;;;;;5072183;28;20025;-71
2021/05/11 04:23:36;;;;;;;9.13;2.95;;;14.30;99.90;;;;;;5072115;28;20055;-71
2021/05/11 04:26:02;;;;;;;6.13;2.40;;;14.20;99.90;;;;;;5072043;28;20025;-72
2021/05/11 04:28:28;;;;;;;5.90;2.90;;;14.30;99.90;;;;;;5072010;28;20111;-71
2021/05/11 04:30:54;;;;;;;5.85;2.90;;;14.30;99.90;;;;;;5056139;28;20075;-71
2021/05/11 04:33:20;;;;;;;7.10;2.75;;;14.40;99.90;;;;;;5075946;28;20108;-71
2021/05/11 04:35:45;;;;;;;9.32;3.22;;;14.60;99.90;;;;;;5075976;28;20028;-71
2021/05/11 04:38:11;;;;;;;9.85;3.03;;;14.30;99.90;;;;;;5058132;28;20498;-71
2021/05/11 04:40:37;;;;;;;29.27;5.78;;;14.20;99.90;;;;;;5058165;28;20028;-71
2021/05/11 04:43:05;;;;;;;21.10;4.63;;;14.20;99.90;;;;;;5075743;28;20033;-71
2021/05/11 04:45:33;;;;;;;20.83;3.60;;;14.20;99.90;;;;;;5057831;28;20045;-72
2021/05/11 04:47:59;;;;;;;11.65;3.65;;;14.20;99.90;;;;;;5057769;28;20542;-71
2021/05/11 04:50:29;;;;;;;7.57;3.33;;;14.20;99.90;;;;;;5075564;28;20016;-71
2021/05/11 04:52:58;;;;;;;4.65;3.42;;;14.20;99.90;;;;;;5076209;28;20378;-71
2021/05/11 04:55:24;;;;;;;8.82;3.13;;;14.10;99.90;;;;;;5075518;28;20040;-71
2021/05/11 04:57:50;;;;;;;6.82;3.45;;;14.10;99.90;;;;;;5075492;28;20074;-71
2021/05/11 05:00:16;;;;;;;12.38;3.78;;;14.10;99.90;;;;;;5057394;28;20025;-72
2021/05/11 05:02:45;;;;;;;8.55;3.67;;;13.90;99.90;;;;;;5056181;28;20518;-72
2021/05/11 05:05:12;;;;;;;9.25;3.60;;;13.90;99.90;;;;;;5074960;28;20016;-72
2021/05/11 05:07:38;;;;;;;12.00;3.67;;;14.20;99.90;;;;;;5074881;28;20024;-71
2021/05/11 05:10:05;;;;;;;9.40;2.95;;;14.20;99.90;;;;;;5074975;28;20025;-71
2021/05/11 05:12:31;;;;;;;7.28;3.33;;;14.30;99.90;;;;;;5074659;28;20052;-72
2021/05/11 05:14:57;;;;;;;5.80;4.28;;;14.10;99.90;;;;;;5056925;28;20064;-71
2021/05/11 05:17:23;;;;;;;3.75;3.00;;;14.00;99.90;;;;;;5056887;28;20025;-71
2021/05/11 05:19:49;;;;;;;4.88;3.28;;;13.90;99.90;;;;;;5056753;28;20069;-71
2021/05/11 05:22:14;;;;;;;3.63;2.80;;;13.90;99.90;;;;;;5057164;28;20047;-71
2021/05/11 05:24:43;;;;;;;4.40;2.83;;;14.00;99.90;;;;;;5074607;28;20043;-71
2021/05/11 05:27:39;;;;;;;9.15;3.50;;;14.10;99.90;;;;;;5074442;28;20092;-71
2021/05/11 05:30:06;;;;;;;4.82;2.72;;;14.40;99.90;;;;;;5056370;28;20032;-71
2021/05/11 05:32:32;;;;;;;9.20;2.53;;;14.60;99.90;;;;;;5091445;28;20032;-72
2021/05/11 05:34:58;;;;;;;6.93;2.88;;;14.90;99.90;;;;;;5094540;28;20539;-71
2021/05/11 05:37:23;;;;;;;10.85;3.35;;;14.90;99.90;;;;;;5094707;28;20246;-72
2021/05/11 05:39:55;;;;;;;3.70;2.95;;;14.70;99.90;;;;;;5076623;28;20039;-71
2021/05/11 05:42:21;;;;;;;5.47;3.20;;;14.90;99.90;;;;;;5093383;28;20039;-72
2021/05/11 05:44:46;;;;;;;3.15;2.85;;;14.60;99.90;;;;;;5094578;28;20024;-71
2021/05/11 05:47:12;;;;;;;4.85;2.67;;;14.40;99.90;;;;;;5076158;28;20497;-71
2021/05/11 05:49:45;;;;;;;11.13;3.15;;;14.10;99.90;;;;;;5094702;28;20361;-71
2021/05/11 05:52:17;;;;;;;7.45;3.38;;;14.40;99.90;;;;;;5094264;28;20032;-71
2021/05/11 05:54:44;;;;;;;26.63;4.47;;;14.60;99.90;;;;;;5093915;28;20020;-72
2021/05/11 05:57:11;;;;;;;32.10;5.22;;;15.00;99.90;;;;;;5094169;28;20046;-72
2021/05/11 05:59:40;;;;;;;13.18;3.25;;;15.40;99.90;;;;;;5092505;28;20020;-71
2021/05/11 06:02:16;;;;;;;3.15;2.17;;;15.60;99.90;;;;;;5075984;28;20035;-71
2021/05/11 06:04:42;;;;;;;9.77;2.20;;;15.60;99.80;;;;;;5094034;28;20027;-71
2021/05/11 06:07:08;;;;;;;10.07;2.95;;;15.40;99.90;;;;;;5094210;28;20066;-72
2021/05/11 06:09:34;;;;;;;4.95;3.28;;;15.40;99.90;;;;;;5093734;28;20495;-71
2021/05/11 06:12:08;;;;;;;5.00;2.70;;;15.30;99.90;;;;;;5093992;28;20099;-72
2021/05/11 06:17:17;;;;;;;5.25;2.03;;;15.60;99.00;;;;;;5093846;28;20036;-71
2021/05/11 06:19:45;;;;;;;3.38;2.30;;;15.50;99.00;;;;;;5075669;28;20032;-71
2021/05/11 06:22:12;;;;;;;9.10;2.40;;;15.60;99.60;;;;;;5093216;28;20035;-72
2021/05/11 06:24:39;;;;;;;13.52;2.58;;;15.70;98.50;;;;;;5075527;28;20031;-72
2021/05/11 06:27:06;;;;;;;3.33;2.17;;;15.70;98.40;;;;;;5075041;28;20028;-72
2021/05/11 06:29:34;;;;;;;6.70;2.30;;;15.80;97.80;;;;;;5075362;28;20490;-71
2021/05/11 06:32:00;;;;;;;2.30;2.08;;;15.60;99.80;;;;;;5093130;28;20027;-71
2021/05/11 06:34:25;;;;;;;7.53;2.88;;;15.70;99.90;;;;;;5093453;28;20024;-72
2021/05/11 06:36:51;;;;;;;5.32;2.22;;;15.70;97.70;;;;;;5075140;28;20026;-72
2021/05/11 06:39:17;;;;;;;6.28;2.03;;;15.60;98.10;;;;;;5067610;28;20033;-72
2021/05/11 06:41:50;;;;;;;3.05;2.60;;;15.80;97.40;;;;;;5072862;28;20025;-71
2021/05/11 06:54:15;;;;;;;4.38;2.10;;;15.90;96.90;;;;;;5071977;28;20106;-71
2021/05/11 06:56:45;;;;;;;4.25;2.20;;;15.90;97.30;;;;;;5072703;28;20039;-71
2021/05/11 06:59:14;;;;;;;3.08;1.85;;;15.90;96.40;;;;;;5072815;28;20449;-71
2021/05/11 07:01:39;;;;;;;8.35;2.67;;;15.80;95.80;;;;;;5070751;28;20040;-71
2021/05/11 07:04:05;;;;;;;20.10;3.15;;;15.80;96.20;;;;;;5072270;28;20012;-71
2021/05/11 07:06:31;;;;;;;6.63;2.53;;;15.80;96.50;;;;;;5072645;28;20412;-71
2021/05/11 07:09:04;;;;;;;4.45;2.15;;;15.70;96.40;;;;;;5072525;28;20017;-71
2021/05/11 07:14:16;;;;;;;4.00;3.00;;;15.80;97.30;;;;;;5021339;28;20119;-72
2021/05/11 07:16:42;;;;;;;7.47;2.45;;;15.90;96.00;;;;;;5054217;28;20123;-71
2021/05/11 07:19:08;;;;;;;8.23;2.42;;;15.90;95.80;;;;;;5072362;28;20025;-71
2021/05/11 07:21:34;;;;;;;4.45;2.58;;;15.90;96.00;;;;;;5053937;28;20081;-73
2021/05/11 07:24:03;;;;;;;4.32;2.30;;;16.00;95.00;;;;;;5070951;28;20100;-73
2021/05/11 07:26:29;;;;;;;4.95;2.67;;;16.00;94.00;;;;;;5071847;28;20031;-71
2021/05/11 07:31:28;;;;;;;6.97;2.70;;;16.00;94.10;;;;;;5072108;28;20020;-71
2021/05/11 07:33:55;;;;;;;10.98;2.42;;;16.00;94.30;;;;;;5053945;28;20020;-72
2021/05/11 07:36:21;;;;;;;7.93;2.60;;;15.90;94.40;;;;;;5054028;28;20017;-71
2021/05/11 07:38:48;;;;;;;8.93;2.80;;;15.70;94.90;;;;;;5070754;28;20024;-71
2021/05/11 07:41:15;;;;;;;2.65;2.20;;;15.70;96.00;;;;;;5070448;28;20028;-72
2021/05/11 07:43:44;;;;;;;6.28;2.53;;;15.90;95.20;;;;;;5069999;28;20027;-73
2021/05/11 08:01:53;;;;;;;5.90;2.33;;;16.20;94.00;;;;;;5071084;28;20028;-72
2021/05/11 08:02:06;;;;;;;3.55;2.25;;;16.30;93.90;;;;;;5053289;28;20028;-72
2021/05/11 08:04:38;;;;;;;3.58;2.17;;;16.30;93.90;;;;;;5071769;28;20016;-72
2021/05/11 08:15:20;;;;;;;6.93;2.42;;;16.10;94.20;;;;;;5053662;28;20036;-72
2021/05/11 08:17:55;;;;;;;3.65;2.20;;;16.40;94.20;;;;;;5071634;28;20035;-72
2021/05/11 08:28:40;;;;;;;4.63;2.97;;;16.10;94.60;;;;;;5071385;28;20039;-72
2021/05/11 08:31:06;;;;;;;6.82;2.67;;;15.90;96.20;;;;;;5071175;28;20298;-72
2021/05/11 08:33:32;;;;;;;6.70;2.40;;;15.90;97.90;;;;;;5071157;28;20032;-72
2021/05/11 08:35:58;;;;;;;3.10;2.15;;;15.70;99.90;;;;;;5071129;28;20028;-72
2021/05/11 08:38:24;;;;;;;6.82;2.28;;;15.60;99.90;;;;;;5071269;28;20104;-71
2021/05/11 08:40:50;;;;;;;10.93;2.95;;;15.80;99.90;;;;;;5071115;28;20033;-72
2021/05/11 08:43:32;;;;;;;14.00;3.50;;;15.80;99.90;;;;;;5071071;28;20024;-72
2021/05/11 08:46:07;;;;;;;11.48;2.75;;;15.80;99.90;;;;;;5053357;28;20384;-72
2021/05/11 08:48:33;;;;;;;6.53;2.30;;;15.80;99.90;;;;;;5070914;28;20060;-72
2021/05/11 09:29:25;;;;;;;13.75;2.70;;;15.90;99.90;;;;;;5056426;28;20025;-71
2021/05/11 09:50:52;;;;;;;3.50;2.03;;;16.50;97.30;;;;;;5073986;28;20028;-71
2021/05/11 10:49:31;;;;;;;11.48;3.55;;;17.10;93.00;;;;;;5072456;28;20024;-71
2021/05/11 10:52:10;;;;;;;12.30;3.90;;;17.30;93.10;;;;;;5072946;28;20056;-72
2021/05/11 10:54:44;;;;;;;10.90;4.40;;;17.50;92.40;;;;;;5072653;28;20025;-71
2021/05/11 11:00:22;;;;;;;4.85;3.30;;;17.60;91.90;;;;;;5053924;28;20044;-72
2021/05/11 11:03:16;;;;;;;11.30;3.28;;;17.50;90.90;;;;;;5072580;28;20140;-71
2021/05/11 11:05:46;;;;;;;8.85;4.15;;;17.40;90.70;;;;;;5054731;28;20017;-72
2021/05/11 11:08:30;;;;;;;9.43;3.42;;;17.50;91.10;;;;;;5054423;28;20472;-72
2021/05/11 11:11:17;;;;;;;9.07;4.10;;;17.60;90.20;;;;;;5072806;28;20024;-71
2021/05/11 11:13:45;;;;;;;14.65;3.50;;;17.60;90.00;;;;;;5072341;28;20037;-71
2021/05/11 11:16:12;;;;;;;8.65;3.53;;;17.70;90.40;;;;;;5054535;28;20103;-71
2021/05/11 11:18:38;;;;;;;10.27;4.38;;;17.80;90.10;;;;;;5072368;28;20028;-72
2021/05/11 11:24:08;;;;;;;15.00;4.72;;;17.90;90.00;;;;;;5031065;28;20383;-72
2021/05/11 11:26:40;;;;;;;22.42;4.57;;;18.00;89.20;;;;;;5071918;28;20561;-71
2021/05/11 11:29:08;;;;;;;10.77;3.42;;;18.10;89.10;;;;;;5072343;28;20468;-71
2021/05/11 11:31:42;;;;;;;13.52;4.40;;;17.70;89.10;;;;;;5072247;28;20033;-72
2021/05/11 11:34:18;;;;;;;22.20;4.20;;;17.50;90.20;;;;;;5053862;28;20094;-71
2021/05/11 11:36:47;;;;;;;12.10;4.13;;;17.40;90.80;;;;;;5053652;28;20380;-71
2021/05/11 11:39:21;;;;;;;11.07;2.65;;;17.50;91.30;;;;;;5071699;28;20545;-71
2021/05/11 11:41:48;;;;;;;6.38;2.88;;;17.70;90.90;;;;;;5053339;28;20035;-71
2021/05/11 11:44:15;;;;;;;14.90;3.72;;;17.70;90.20;;;;;;5054086;28;20055;-71
2021/05/11 11:46:41;;;;;;;8.95;4.10;;;17.70;87.90;;;;;;5054083;28;20365;-71
2021/05/11 11:49:12;;;;;;;11.85;3.13;;;17.60;87.30;;;;;;5071791;28;20031;-72
2021/05/11 11:51:38;;;;;;;10.60;3.70;;;17.60;86.60;;;;;;5073561;22;20034;-75
2021/05/11 11:54:20;;;;;;;12.05;3.83;;;17.60;85.00;;;;;;5060497;28;20161;-75
2021/05/11 11:59:24;;;;;;;16.33;3.35;;;17.90;84.90;;;;;;5100230;28;20538;-74
2021/05/11 12:02:04;;;;;;;16.30;4.05;;;18.20;84.20;;;;;;5100372;28;20055;-74
2021/05/11 12:04:31;;;;;;;14.43;4.00;;;18.40;83.30;;;;;;5096871;28;20019;-74
2021/05/11 12:07:05;;;;;;;4.85;3.17;;;18.50;82.20;;;;;;5082327;28;20016;-74
2021/05/11 12:09:32;;;;;;;10.95;3.30;;;18.50;81.60;;;;;;5105082;28;20022;-74
2021/05/11 12:12:00;;;;;;;5.45;3.08;;;18.70;80.00;;;;;;5096219;28;20106;-74
2021/05/11 12:14:27;;;;;;;17.17;3.78;;;18.80;79.40;;;;;;5078276;28;20028;-75
2021/05/11 12:16:52;;;;;;;6.20;3.25;;;19.10;77.40;;;;;;5102046;28;20028;-74
2021/05/11 12:19:23;;;;;;;12.00;3.20;;;19.20;76.80;;;;;;5096175;28;20509;-74
2021/05/11 12:21:54;;;;;;;6.97;2.83;;;19.40;76.20;;;;;;5072449;28;20111;-74
2021/05/11 12:24:23;;;;;;;11.45;3.05;;;19.80;75.70;;;;;;5100413;28;20319;-76
2021/05/11 12:26:49;;;;;;;40.80;4.45;;;19.60;76.90;;;;;;5099794;28;20016;-74
2021/05/11 12:29:17;;;;;;;16.33;3.33;;;19.70;76.40;;;;;;5082341;28;20036;-75
2021/05/11 12:31:47;;;;;;;12.27;2.50;;;19.70;73.40;;;;;;5081885;28;20028;-75
2021/05/11 12:34:24;;;;;;;9.75;2.83;;;19.70;74.60;;;;;;5080383;28;20028;-74
2021/05/11 12:36:56;;;;;;;25.27;3.53;;;19.60;75.10;;;;;;5078430;28;20024;-75
2021/05/11 12:42:24;;;;;;;11.98;3.92;;;19.60;75.40;;;;;;5103819;28;20040;-75
2021/05/11 12:45:07;;;;;;;9.73;2.35;;;20.00;74.70;;;;;;5091896;28;20486;-75
2021/05/11 12:47:46;;;;;;;10.98;3.00;;;20.40;73.00;;;;;;5094861;28;20019;-75
2021/05/11 12:50:40;;;;;;;8.55;3.03;;;20.50;71.60;;;;;;5100719;28;20045;-75
2021/05/11 12:56:19;;;;;;;9.68;2.53;;;20.70;71.80;;;;;;5100855;28;20030;-76
2021/05/11 12:59:03;;;;;;;3.08;1.75;;;20.60;71.90;;;;;;5099523;28;20417;-74
2021/05/11 13:04:35;;;;;;;7.95;2.53;;;20.40;73.00;;;;;;5105518;28;20071;-75
2021/05/11 13:21:14;;;;;;;11.18;3.22;;;20.20;73.60;;;;;;5085228;28;20023;-75
2021/05/11 13:26:32;;;;;;;11.90;3.08;;;20.20;73.90;;;;;;5100086;28;20383;-75
2021/05/11 13:29:05;;;;;;;4.80;3.70;;;20.10;74.80;;;;;;5085941;28;20020;-75
2021/05/11 13:31:44;;;;;;;8.13;2.80;;;20.00;75.30;;;;;;5098499;28;20093;-75
2021/05/11 13:34:13;;;;;;;9.95;3.45;;;20.10;76.10;;;;;;5088937;28;20445;-75
2021/05/11 13:36:41;;;;;;;6.43;2.80;;;20.00;76.20;;;;;;5103516;28;20016;-75
2021/05/11 13:39:10;;;;;;;7.28;3.45;;;20.10;76.20;;;;;;5085788;28;20099;-75
2021/05/11 13:41:36;;;;;;;9.30;3.47;;;20.20;76.10;;;;;;5073892;28;20077;-76
2021/05/11 13:44:02;;;;;;;3.60;3.22;;;20.10;75.80;;;;;;5104657;28;20371;-74
2021/05/11 13:46:28;;;;;;;6.60;3.45;;;20.20;74.60;;;;;;5107142;28;20035;-74
2021/05/11 13:48:54;;;;;;;5.85;3.03;;;20.20;73.70;;;;;;5102761;28;20024;-74
2021/05/11 13:51:20;;;;;;;11.98;3.08;;;20.10;74.20;;;;;;5085871;28;20529;-74
2021/05/11 13:53:57;;;;;;;5.63;3.08;;;20.20;74.50;;;;;;5081189;28;20098;-74
2021/05/11 14:04:07;;;;;;;5.97;3.70;;;20.00;75.90;;;;;;5075710;28;20032;-74
2021/05/11 14:06:33;;;;;;;7.65;3.20;;;19.50;75.60;;;;;;5077765;28;20024;-74
2021/05/11 14:08:59;;;;;;;6.43;3.40;;;19.10;75.90;;;;;;5103748;28;20038;-74
2021/05/11 14:11:25;;;;;;;6.07;3.05;;;19.20;76.30;;;;;;5106593;28;20011;-75
2021/05/11 14:13:51;;;;;;;7.55;2.92;;;19.30;76.00;;;;;;5084946;28;20054;-74
2021/05/11 14:16:17;;;;;;;10.93;2.78;;;19.60;75.60;;;;;;5102368;28;20028;-74
2021/05/11 14:18:43;;;;;;;4.38;2.60;;;19.80;73.80;;;;;;5084229;28;20107;-75
2021/05/11 14:21:09;;;;;;;6.68;2.50;;;19.90;73.40;;;;;;5097784;28;20020;-74
2021/05/11 14:23:35;;;;;;;4.63;1.95;;;20.10;71.20;;;;;;5084057;28;20023;-74
2021/05/11 14:26:02;;;;;;;9.02;2.83;;;20.20;69.60;;;;;;5096520;28;20028;-74
2021/05/11 14:28:28;;;;;;;9.27;3.10;;;20.30;68.80;;;;;;5101969;28;20028;-74
2021/05/11 14:30:54;;;;;;;19.67;3.17;;;20.20;70.10;;;;;;5093503;28;20024;-73
2021/05/11 14:33:20;;;;;;;6.60;2.72;;;20.00;70.50;;;;;;5107699;28;20047;-74
2021/05/11 14:35:45;;;;;;;8.45;3.03;;;19.90;71.30;;;;;;5084391;28;20103;-75
2021/05/11 14:38:11;;;;;;;6.20;2.70;;;20.00;70.80;;;;;;5084782;28;20142;-75
2021/05/11 14:40:37;;;;;;;6.32;3.08;;;20.00;70.50;;;;;;5085390;28;20073;-73
2021/05/11 14:43:03;;;;;;;5.55;2.70;;;19.90;71.00;;;;;;5102195;28;20410;-73
2021/05/11 14:45:30;;;;;;;6.88;2.70;;;19.80;71.00;;;;;;5084369;28;20027;-74
2021/05/11 14:47:56;;;;;;;6.07;2.67;;;19.50;71.10;;;;;;5102942;28;20016;-74
2021/05/11 14:50:23;;;;;;;7.10;2.83;;;19.40;71.50;;;;;;5097038;28;20463;-74
2021/05/11 14:52:54;;;;;;;8.07;3.90;;;19.50;72.40;;;;;;5078488;28;20552;-75
2021/05/11 14:55:24;;;;;;;5.82;3.50;;;19.30;74.10;;;;;;5082566;28;20027;-75
2021/05/11 14:57:54;;;;;;;6.80;3.50;;;19.30;74.40;;;;;;5103196;28;20046;-74
2021/05/11 15:00:23;;;;;;;11.63;4.20;;;19.20;76.50;;;;;;5082638;28;20078;-75
2021/05/11 15:02:49;;;;;;;12.90;3.90;;;19.10;76.80;;;;;;5106753;28;20541;-75
2021/05/11 15:05:15;;;;;;;5.43;3.92;;;19.20;77.30;;;;;;5083784;28;20043;-74
2021/05/11 15:07:41;;;;;;;9.48;4.60;;;19.00;78.00;;;;;;5092406;28;20039;-75
2021/05/11 15:10:07;;;;;;;13.43;4.22;;;18.90;79.50;;;;;;5085827;28;20020;-75
2021/05/11 15:12:34;;;;;;;9.45;3.60;;;18.80;80.00;;;;;;5108939;28;20016;-75
2021/05/11 15:14:59;;;;;;;8.90;4.07;;;18.60;81.30;;;;;;5102549;28;20027;-75
2021/05/11 15:19:56;;;;;;;7.93;4.35;;;18.80;81.20;;;;;;5082034;28;20020;-75
2021/05/11 15:22:22;;;;;;;7.63;4.22;;;18.90;80.80;;;;;;5096402;28;20038;-76
2021/05/11 15:24:50;;;;;;;7.28;4.30;;;18.80;81.00;;;;;;5103203;28;20471;-76
2021/05/11 15:27:17;;;;;;;8.10;3.60;;;18.80;80.60;;;;;;5101397;28;20084;-76
2021/05/11 15:29:43;;;;;;;10.38;3.35;;;18.40;77.10;;;;;;5107089;28;20047;-75
2021/05/11 15:32:42;;;;;;;5.85;3.00;;;18.20;78.90;;;;;;5078996;28;20055;-76
2021/05/11 15:35:16;;;;;;;6.57;3.88;;;18.10;79.20;;;;;;5069645;28;20043;-77
2021/05/11 15:37:43;;;;;;;6.82;4.05;;;18.10;79.70;;;;;;5098836;28;20038;-76
2021/05/11 15:40:15;;;;;;;5.03;4.13;;;18.10;80.10;;;;;;5053539;28;20036;-75
2021/05/11 15:42:41;;;;;;;6.18;3.25;;;18.00;80.70;;;;;;5061428;28;20074;-75
2021/05/11 15:45:09;;;;;;;5.20;4.10;;;18.10;80.60;;;;;;5096604;28;20134;-75
2021/05/11 15:47:37;;;;;;;5.93;3.10;;;18.40;80.30;;;;;;5101666;28;20020;-75
2021/05/11 15:50:05;;;;;;;13.23;3.80;;;18.40;80.10;;;;;;5098260;28;20051;-75
2021/05/11 15:52:31;;;;;;;6.63;3.83;;;18.40;80.20;;;;;;5070643;28;20043;-74
2021/05/11 15:54:57;;;;;;;9.80;4.00;;;18.20;80.90;;;;;;5065844;28;20414;-76
2021/05/11 15:57:23;;;;;;;5.38;3.85;;;18.50;81.00;;;;;;5077661;28;20389;-75
2021/05/11 15:59:50;;;;;;;7.45;4.38;;;18.40;79.90;;;;;;5097459;28;20048;-75
2021/05/11 16:02:16;;;;;;;5.50;4.70;;;18.10;81.10;;;;;;5082517;28;20027;-75
2021/05/11 16:04:42;;;;;;;7.15;4.18;;;18.10;81.10;;;;;;5101943;28;20471;-75
2021/05/11 16:07:08;;;;;;;13.07;4.97;;;18.20;81.80;;;;;;5078330;28;20150;-75
2021/05/11 16:09:34;;;;;;;8.60;4.28;;;18.20;82.00;;;;;;5104620;28;20095;-76
2021/05/11 16:12:00;;;;;;;15.07;5.80;;;18.20;82.10;;;;;;5083208;28;20106;-75
2021/05/11 16:14:25;;;;;;;9.30;5.93;;;17.90;82.50;;;;;;5088124;28;20130;-75
2021/05/11 16:16:51;;;;;;;12.00;6.45;;;17.80;82.70;;;;;;5073582;28;20024;-76
2021/05/11 16:19:17;;;;;;;7.63;5.70;;;17.60;83.30;;;;;;5091935;28;20032;-76
2021/05/11 16:21:43;;;;;;;13.30;7.07;;;17.60;84.80;;;;;;5073824;28;20538;-76
2021/05/11 16:24:09;;;;;;;8.38;6.78;;;17.80;84.50;;;;;;5073966;28;20039;-76
2021/05/11 16:26:34;;;;;;;14.02;7.30;;;17.90;84.20;;;;;;5093739;28;20464;-76
2021/05/11 16:29:00;;;;;;;9.18;7.05;;;17.90;84.20;;;;;;5077812;28;20031;-75
2021/05/11 16:31:26;;;;;;;12.50;8.23;;;17.80;84.40;;;;;;5096147;28;20383;-75
2021/05/11 16:33:52;;;;;;;8.38;7.57;;;17.80;85.10;;;;;;5077776;28;20032;-75
2021/05/11 16:36:18;;;;;;;11.27;8.23;;;17.90;84.50;;;;;;5077497;28;20035;-75
2021/05/11 16:38:44;;;;;;;11.30;7.85;;;17.60;86.10;;;;;;5061050;28;20024;-76
2021/05/11 16:41:10;;;;;;;13.80;7.82;;;17.50;87.80;;;;;;5061090;28;20028;-75
2021/05/11 16:43:36;;;;;;;7.97;7.18;;;17.30;88.60;;;;;;5095850;28;20024;-75
2021/05/11 16:46:04;;;;;;;8.43;7.03;;;17.20;89.50;;;;;;5095886;28;20055;-76
2021/05/11 16:48:34;;;;;;;11.60;7.55;;;17.10;90.00;;;;;;5093326;28;20107;-75
2021/05/11 16:51:01;;;;;;;11.38;8.05;;;17.10;90.00;;;;;;5094595;28;20039;-75
2021/05/11 16:53:27;;;;;;;17.60;7.07;;;17.00;90.00;;;;;;5095632;28;20044;-76
2021/05/11 16:55:53;;;;;;;13.35;7.43;;;17.10;90.10;;;;;;5077172;28;20028;-76
2021/05/11 16:58:19;;;;;;;11.35;7.70;;;17.10;90.40;;;;;;5095446;28;20077;-76
2021/05/11 17:00:45;;;;;;;7.97;6.22;;;17.10;90.80;;;;;;5077611;28;20395;-76
2021/05/11 17:03:10;;;;;;;8.27;7.00;;;17.20;90.50;;;;;;5077078;28;20050;-75
2021/05/11 17:05:37;;;;;;;7.78;7.00;;;17.30;90.30;;;;;;5095090;28;20146;-76
2021/05/11 17:08:04;;;;;;;10.80;5.82;;;17.20;90.60;;;;;;5077060;28;20027;-75
2021/05/11 17:10:32;;;;;;;10.98;6.40;;;17.20;90.90;;;;;;5096982;28;20021;-76
2021/05/11 17:13:00;;;;;;;10.05;6.55;;;16.80;91.50;;;;;;5077064;28;20020;-75
2021/05/11 17:15:28;;;;;;;11.40;7.07;;;16.70;92.40;;;;;;5091176;28;20042;-75
2021/05/11 17:17:54;;;;;;;6.95;6.25;;;16.60;93.50;;;;;;5115618;28;20084;-75
2021/05/11 17:20:24;;;;;;;11.18;5.40;;;16.40;94.30;;;;;;5115480;28;20051;-76
2021/05/11 17:22:50;;;;;;;8.48;6.15;;;16.20;96.00;;;;;;5115525;28;20035;-76